sensor_id;sensor_type;location;lat;lon;timestamp;P1;durP1;ratioP1;P2;durP2;ratioP2
6979;SDS011;3530;52.832;10.680;2022-10-16T00:01:23;1.85;;;1.35;;
6979;SDS011;3530;52.832;10.680;2022-10-16T00:04:10;1.40;;;1.40;;
6979;SDS011;3530;52.832;10.680;2022-10-16T00:06:56;2.38;;;1.52;;
6979;SDS011;3530;52.832;10.680;2022-10-16T00:09:41;1.48;;;1.48;;
6979;SDS011;3530;52.832;10.680;2022-10-16T00:12:27;1.95;;;1.40;;
6979;SDS011;3530;52.832;10.680;2022-10-16T00:15:13;1.38;;;1.38;;
6979;SDS011;3530;52.832;10.680;2022-10-16T00:17:58;1.48;;;1.48;;
6979;SDS011;3530;52.832;10.680;2022-10-16T00:20:44;1.33;;;1.33;;
6979;SDS011;3530;52.832;10.680;2022-10-16T00:23:30;4.00;;;1.50;;
6979;SDS011;3530;52.832;10.680;2022-10-16T00:26:17;1.40;;;1.40;;
6979;SDS011;3530;52.832;10.680;2022-10-16T00:29:03;1.40;;;1.35;;
6979;SDS011;3530;52.832;10.680;2022-10-16T00:31:49;1.50;;;1.50;;
6979;SDS011;3530;52.832;10.680;2022-10-16T00:34:34;1.35;;;1.33;;
6979;SDS011;3530;52.832;10.680;2022-10-16T00:37:20;2.70;;;1.55;;
6979;SDS011;3530;52.832;10.680;2022-10-16T00:40:06;2.17;;;1.60;;
6979;SDS011;3530;52.832;10.680;2022-10-16T00:42:52;1.25;;;1.25;;
6979;SDS011;3530;52.832;10.680;2022-10-16T00:45:38;2.67;;;1.50;;
6979;SDS011;3530;52.832;10.680;2022-10-16T00:48:23;1.48;;;1.48;;
6979;SDS011;3530;52.832;10.680;2022-10-16T00:51:09;1.50;;;1.50;;
6979;SDS011;3530;52.832;10.680;2022-10-16T00:53:55;3.42;;;1.73;;
6979;SDS011;3530;52.832;10.680;2022-10-16T00:56:41;1.25;;;1.20;;
6979;SDS011;3530;52.832;10.680;2022-10-16T01:02:18;1.70;;;1.60;;
6979;SDS011;3530;52.832;10.680;2022-10-16T01:05:04;1.98;;;1.73;;
6979;SDS011;3530;52.832;10.680;2022-10-16T01:08:05;1.58;;;1.58;;
6979;SDS011;3530;52.832;10.680;2022-10-16T01:11:01;2.28;;;1.60;;
6979;SDS011;3530;52.832;10.680;2022-10-16T01:13:55;4.78;;;1.70;;
6979;SDS011;3530;52.832;10.680;2022-10-16T01:16:44;1.63;;;1.52;;
6979;SDS011;3530;52.832;10.680;2022-10-16T01:19:38;2.67;;;1.38;;
6979;SDS011;3530;52.832;10.680;2022-10-16T01:22:31;1.65;;;1.60;;
6979;SDS011;3530;52.832;10.680;2022-10-16T01:28:54;1.45;;;1.40;;
6979;SDS011;3530;52.832;10.680;2022-10-16T01:31:56;1.80;;;1.70;;
6979;SDS011;3530;52.832;10.680;2022-10-16T01:34:47;1.70;;;1.58;;
6979;SDS011;3530;52.832;10.680;2022-10-16T01:37:36;1.58;;;1.48;;
6979;SDS011;3530;52.832;10.680;2022-10-16T01:40:25;1.88;;;1.38;;
6979;SDS011;3530;52.832;10.680;2022-10-16T01:43:12;2.90;;;1.67;;
6979;SDS011;3530;52.832;10.680;2022-10-16T01:46:00;1.40;;;1.40;;
6979;SDS011;3530;52.832;10.680;2022-10-16T01:48:47;2.97;;;1.83;;
6979;SDS011;3530;52.832;10.680;2022-10-16T01:51:33;1.88;;;1.77;;
6979;SDS011;3530;52.832;10.680;2022-10-16T01:54:20;1.38;;;1.38;;
6979;SDS011;3530;52.832;10.680;2022-10-16T01:57:08;1.67;;;1.55;;
6979;SDS011;3530;52.832;10.680;2022-10-16T01:59:56;2.95;;;1.60;;
6979;SDS011;3530;52.832;10.680;2022-10-16T02:02:44;1.77;;;1.67;;
6979;SDS011;3530;52.832;10.680;2022-10-16T02:05:40;1.48;;;1.48;;
6979;SDS011;3530;52.832;10.680;2022-10-16T02:08:29;1.70;;;1.60;;
6979;SDS011;3530;52.832;10.680;2022-10-16T02:11:16;1.98;;;1.50;;
6979;SDS011;3530;52.832;10.680;2022-10-16T02:14:02;1.80;;;1.63;;
6979;SDS011;3530;52.832;10.680;2022-10-16T02:16:50;1.40;;;1.40;;
6979;SDS011;3530;52.832;10.680;2022-10-16T02:19:35;1.95;;;1.40;;
6979;SDS011;3530;52.832;10.680;2022-10-16T02:22:29;2.88;;;1.58;;
6979;SDS011;3530;52.832;10.680;2022-10-16T02:25:25;4.05;;;1.60;;
6979;SDS011;3530;52.832;10.680;2022-10-16T02:28:26;4.68;;;2.08;;
6979;SDS011;3530;52.832;10.680;2022-10-16T02:31:16;1.40;;;1.40;;
6979;SDS011;3530;52.832;10.680;2022-10-16T02:34:04;1.67;;;1.40;;
6979;SDS011;3530;52.832;10.680;2022-10-16T02:36:51;3.22;;;1.67;;
6979;SDS011;3530;52.832;10.680;2022-10-16T02:39:37;1.70;;;1.35;;
6979;SDS011;3530;52.832;10.680;2022-10-16T02:42:27;1.30;;;1.30;;
6979;SDS011;3530;52.832;10.680;2022-10-16T02:45:15;1.60;;;1.50;;
6979;SDS011;3530;52.832;10.680;2022-10-16T02:48:00;1.35;;;1.35;;
6979;SDS011;3530;52.832;10.680;2022-10-16T02:50:46;4.38;;;2.22;;
6979;SDS011;3530;52.832;10.680;2022-10-16T02:53:32;1.95;;;1.52;;
6979;SDS011;3530;52.832;10.680;2022-10-16T02:56:17;2.17;;;1.45;;
6979;SDS011;3530;52.832;10.680;2022-10-16T02:59:03;1.70;;;1.60;;
6979;SDS011;3530;52.832;10.680;2022-10-16T03:01:49;2.00;;;1.40;;
6979;SDS011;3530;52.832;10.680;2022-10-16T03:04:34;2.85;;;1.52;;
6979;SDS011;3530;52.832;10.680;2022-10-16T03:07:20;1.73;;;1.60;;
6979;SDS011;3530;52.832;10.680;2022-10-16T03:10:06;1.90;;;1.42;;
6979;SDS011;3530;52.832;10.680;2022-10-16T03:12:52;2.17;;;1.40;;
6979;SDS011;3530;52.832;10.680;2022-10-16T03:15:37;1.42;;;1.42;;
6979;SDS011;3530;52.832;10.680;2022-10-16T03:18:23;1.50;;;1.42;;
6979;SDS011;3530;52.832;10.680;2022-10-16T03:21:09;3.63;;;1.75;;
6979;SDS011;3530;52.832;10.680;2022-10-16T03:23:54;2.03;;;1.55;;
6979;SDS011;3530;52.832;10.680;2022-10-16T03:26:40;4.97;;;1.90;;
6979;SDS011;3530;52.832;10.680;2022-10-16T03:29:26;1.58;;;1.50;;
6979;SDS011;3530;52.832;10.680;2022-10-16T03:32:12;1.60;;;1.60;;
6979;SDS011;3530;52.832;10.680;2022-10-16T03:34:58;1.80;;;1.70;;
6979;SDS011;3530;52.832;10.680;2022-10-16T03:37:44;1.90;;;1.80;;
6979;SDS011;3530;52.832;10.680;2022-10-16T03:40:29;1.90;;;1.38;;
6979;SDS011;3530;52.832;10.680;2022-10-16T03:43:17;2.97;;;1.58;;
6979;SDS011;3530;52.832;10.680;2022-10-16T03:46:03;1.77;;;1.77;;
6979;SDS011;3530;52.832;10.680;2022-10-16T03:48:48;1.60;;;1.50;;
6979;SDS011;3530;52.832;10.680;2022-10-16T03:51:34;1.73;;;1.63;;
6979;SDS011;3530;52.832;10.680;2022-10-16T03:54:20;1.85;;;1.75;;
6979;SDS011;3530;52.832;10.680;2022-10-16T03:57:07;1.90;;;1.80;;
6979;SDS011;3530;52.832;10.680;2022-10-16T03:59:53;2.08;;;1.98;;
6979;SDS011;3530;52.832;10.680;2022-10-16T04:02:39;3.20;;;1.98;;
6979;SDS011;3530;52.832;10.680;2022-10-16T04:05:24;2.20;;;2.00;;
6979;SDS011;3530;52.832;10.680;2022-10-16T04:08:10;4.80;;;2.05;;
6979;SDS011;3530;52.832;10.680;2022-10-16T04:10:56;1.90;;;1.75;;
6979;SDS011;3530;52.832;10.680;2022-10-16T04:13:41;3.13;;;2.05;;
6979;SDS011;3530;52.832;10.680;2022-10-16T04:16:27;2.30;;;2.15;;
6979;SDS011;3530;52.832;10.680;2022-10-16T04:19:13;2.20;;;2.00;;
6979;SDS011;3530;52.832;10.680;2022-10-16T04:21:58;2.03;;;1.88;;
6979;SDS011;3530;52.832;10.680;2022-10-16T04:24:44;2.30;;;2.17;;
6979;SDS011;3530;52.832;10.680;2022-10-16T04:27:30;1.80;;;1.70;;
6979;SDS011;3530;52.832;10.680;2022-10-16T04:30:16;2.10;;;2.00;;
6979;SDS011;3530;52.832;10.680;2022-10-16T04:33:02;1.80;;;1.70;;
6979;SDS011;3530;52.832;10.680;2022-10-16T04:35:47;2.22;;;1.88;;
6979;SDS011;3530;52.832;10.680;2022-10-16T04:38:33;2.00;;;1.90;;
6979;SDS011;3530;52.832;10.680;2022-10-16T04:41:19;2.17;;;2.08;;
6979;SDS011;3530;52.832;10.680;2022-10-16T04:44:04;2.40;;;2.20;;
6979;SDS011;3530;52.832;10.680;2022-10-16T04:46:50;2.90;;;2.13;;
6979;SDS011;3530;52.832;10.680;2022-10-16T04:49:36;2.95;;;2.25;;
6979;SDS011;3530;52.832;10.680;2022-10-16T04:52:22;2.55;;;2.13;;
6979;SDS011;3530;52.832;10.680;2022-10-16T04:55:09;2.70;;;2.42;;
6979;SDS011;3530;52.832;10.680;2022-10-16T04:57:55;2.60;;;2.33;;
6979;SDS011;3530;52.832;10.680;2022-10-16T05:00:41;1.98;;;1.88;;
6979;SDS011;3530;52.832;10.680;2022-10-16T05:03:26;2.33;;;2.22;;
6979;SDS011;3530;52.832;10.680;2022-10-16T05:06:12;2.38;;;2.15;;
6979;SDS011;3530;52.832;10.680;2022-10-16T05:08:58;4.63;;;2.38;;
6979;SDS011;3530;52.832;10.680;2022-10-16T05:11:43;4.43;;;2.50;;
6979;SDS011;3530;52.832;10.680;2022-10-16T05:14:29;3.97;;;3.63;;
6979;SDS011;3530;52.832;10.680;2022-10-16T05:17:15;2.60;;;2.50;;
6979;SDS011;3530;52.832;10.680;2022-10-16T05:20:01;3.00;;;2.22;;
6979;SDS011;3530;52.832;10.680;2022-10-16T05:22:47;2.25;;;2.15;;
6979;SDS011;3530;52.832;10.680;2022-10-16T05:25:33;2.50;;;2.30;;
6979;SDS011;3530;52.832;10.680;2022-10-16T05:28:19;2.08;;;1.98;;
6979;SDS011;3530;52.832;10.680;2022-10-16T05:31:07;2.70;;;2.50;;
6979;SDS011;3530;52.832;10.680;2022-10-16T05:34:00;2.95;;;2.70;;
6979;SDS011;3530;52.832;10.680;2022-10-16T05:36:46;2.00;;;1.90;;
6979;SDS011;3530;52.832;10.680;2022-10-16T05:39:32;3.17;;;2.40;;
6979;SDS011;3530;52.832;10.680;2022-10-16T05:42:18;2.42;;;2.33;;
6979;SDS011;3530;52.832;10.680;2022-10-16T05:45:04;2.63;;;2.22;;
6979;SDS011;3530;52.832;10.680;2022-10-16T05:47:57;2.30;;;2.20;;
6979;SDS011;3530;52.832;10.680;2022-10-16T05:50:43;3.15;;;2.90;;
6979;SDS011;3530;52.832;10.680;2022-10-16T05:53:29;2.60;;;2.20;;
6979;SDS011;3530;52.832;10.680;2022-10-16T05:56:16;2.67;;;2.47;;
6979;SDS011;3530;52.832;10.680;2022-10-16T05:59:03;4.05;;;3.75;;
6979;SDS011;3530;52.832;10.680;2022-10-16T06:01:49;3.03;;;2.58;;
6979;SDS011;3530;52.832;10.680;2022-10-16T06:04:34;2.30;;;2.20;;
6979;SDS011;3530;52.832;10.680;2022-10-16T06:07:20;2.85;;;2.40;;
6979;SDS011;3530;52.832;10.680;2022-10-16T06:10:06;2.80;;;2.55;;
6979;SDS011;3530;52.832;10.680;2022-10-16T06:12:52;2.92;;;2.72;;
6979;SDS011;3530;52.832;10.680;2022-10-16T06:15:38;2.55;;;2.35;;
6979;SDS011;3530;52.832;10.680;2022-10-16T06:18:27;2.80;;;2.60;;
6979;SDS011;3530;52.832;10.680;2022-10-16T06:21:17;2.72;;;2.40;;
6979;SDS011;3530;52.832;10.680;2022-10-16T06:24:04;3.03;;;2.33;;
6979;SDS011;3530;52.832;10.680;2022-10-16T06:26:50;3.35;;;2.30;;
6979;SDS011;3530;52.832;10.680;2022-10-16T06:29:36;2.30;;;2.20;;
6979;SDS011;3530;52.832;10.680;2022-10-16T06:32:21;3.60;;;2.40;;
6979;SDS011;3530;52.832;10.680;2022-10-16T06:35:07;2.42;;;2.22;;
6979;SDS011;3530;52.832;10.680;2022-10-16T06:37:53;4.57;;;2.30;;
6979;SDS011;3530;52.832;10.680;2022-10-16T06:40:39;2.40;;;2.30;;
6979;SDS011;3530;52.832;10.680;2022-10-16T06:43:24;2.75;;;2.53;;
6979;SDS011;3530;52.832;10.680;2022-10-16T06:46:11;3.03;;;2.70;;
6979;SDS011;3530;52.832;10.680;2022-10-16T06:48:57;2.92;;;2.25;;
6979;SDS011;3530;52.832;10.680;2022-10-16T06:51:43;2.97;;;2.78;;
6979;SDS011;3530;52.832;10.680;2022-10-16T06:54:29;2.60;;;2.40;;
6979;SDS011;3530;52.832;10.680;2022-10-16T06:57:14;5.13;;;2.83;;
6979;SDS011;3530;52.832;10.680;2022-10-16T07:00:00;3.80;;;2.50;;
6979;SDS011;3530;52.832;10.680;2022-10-16T07:02:46;2.60;;;2.40;;
6979;SDS011;3530;52.832;10.680;2022-10-16T07:05:31;2.75;;;2.55;;
6979;SDS011;3530;52.832;10.680;2022-10-16T07:08:17;2.13;;;1.90;;
6979;SDS011;3530;52.832;10.680;2022-10-16T07:11:10;2.30;;;2.10;;
6979;SDS011;3530;52.832;10.680;2022-10-16T07:13:59;4.15;;;2.95;;
6979;SDS011;3530;52.832;10.680;2022-10-16T07:16:45;3.28;;;2.53;;
6979;SDS011;3530;52.832;10.680;2022-10-16T07:19:31;1.83;;;1.75;;
6979;SDS011;3530;52.832;10.680;2022-10-16T07:22:17;2.00;;;2.00;;
6979;SDS011;3530;52.832;10.680;2022-10-16T07:25:02;2.22;;;2.13;;
6979;SDS011;3530;52.832;10.680;2022-10-16T07:27:48;2.63;;;2.42;;
6979;SDS011;3530;52.832;10.680;2022-10-16T07:30:35;2.50;;;2.28;;
6979;SDS011;3530;52.832;10.680;2022-10-16T07:33:22;2.78;;;2.58;;
6979;SDS011;3530;52.832;10.680;2022-10-16T07:36:08;2.92;;;2.55;;
6979;SDS011;3530;52.832;10.680;2022-10-16T07:38:53;4.22;;;3.78;;
6979;SDS011;3530;52.832;10.680;2022-10-16T07:41:39;2.30;;;2.20;;
6979;SDS011;3530;52.832;10.680;2022-10-16T07:44:25;2.55;;;2.10;;
6979;SDS011;3530;52.832;10.680;2022-10-16T07:47:10;2.95;;;2.25;;
6979;SDS011;3530;52.832;10.680;2022-10-16T07:49:56;1.95;;;1.80;;
6979;SDS011;3530;52.832;10.680;2022-10-16T07:52:42;2.53;;;2.40;;
6979;SDS011;3530;52.832;10.680;2022-10-16T07:55:27;1.90;;;1.80;;
6979;SDS011;3530;52.832;10.680;2022-10-16T07:58:13;2.47;;;2.28;;
6979;SDS011;3530;52.832;10.680;2022-10-16T08:01:02;2.20;;;2.10;;
6979;SDS011;3530;52.832;10.680;2022-10-16T08:03:49;2.30;;;2.20;;
6979;SDS011;3530;52.832;10.680;2022-10-16T08:06:37;1.80;;;1.80;;
6979;SDS011;3530;52.832;10.680;2022-10-16T08:09:23;2.20;;;2.10;;
6979;SDS011;3530;52.832;10.680;2022-10-16T08:12:09;2.20;;;2.00;;
6979;SDS011;3530;52.832;10.680;2022-10-16T08:14:56;2.50;;;2.10;;
6979;SDS011;3530;52.832;10.680;2022-10-16T08:17:41;1.98;;;1.88;;
6979;SDS011;3530;52.832;10.680;2022-10-16T08:20:28;2.55;;;1.95;;
6979;SDS011;3530;52.832;10.680;2022-10-16T08:23:14;2.08;;;1.98;;
6979;SDS011;3530;52.832;10.680;2022-10-16T08:26:04;2.00;;;1.90;;
6979;SDS011;3530;52.832;10.680;2022-10-16T08:28:50;3.28;;;1.77;;
6979;SDS011;3530;52.832;10.680;2022-10-16T08:31:37;2.22;;;1.70;;
6979;SDS011;3530;52.832;10.680;2022-10-16T08:34:22;1.95;;;1.85;;
6979;SDS011;3530;52.832;10.680;2022-10-16T08:37:08;1.58;;;1.58;;
6979;SDS011;3530;52.832;10.680;2022-10-16T08:39:56;1.70;;;1.60;;
6979;SDS011;3530;52.832;10.680;2022-10-16T08:49:16;1.40;;;1.40;;
6979;SDS011;3530;52.832;10.680;2022-10-16T08:52:02;1.63;;;1.50;;
6979;SDS011;3530;52.832;10.680;2022-10-16T08:54:48;1.80;;;1.60;;
6979;SDS011;3530;52.832;10.680;2022-10-16T08:57:41;1.58;;;1.58;;
6979;SDS011;3530;52.832;10.680;2022-10-16T09:00:26;1.30;;;1.23;;
6979;SDS011;3530;52.832;10.680;2022-10-16T09:03:16;1.58;;;1.48;;
6979;SDS011;3530;52.832;10.680;2022-10-16T09:06:08;1.70;;;1.58;;
6979;SDS011;3530;52.832;10.680;2022-10-16T09:12:03;4.32;;;2.20;;
6979;SDS011;3530;52.832;10.680;2022-10-16T09:21:27;2.35;;;2.10;;
6979;SDS011;3530;52.832;10.680;2022-10-16T09:24:16;5.13;;;1.90;;
6979;SDS011;3530;52.832;10.680;2022-10-16T09:27:04;1.95;;;1.85;;
6979;SDS011;3530;52.832;10.680;2022-10-16T09:29:49;1.52;;;1.50;;
6979;SDS011;3530;52.832;10.680;2022-10-16T09:32:35;2.33;;;1.50;;
6979;SDS011;3530;52.832;10.680;2022-10-16T09:35:27;1.50;;;1.50;;
6979;SDS011;3530;52.832;10.680;2022-10-16T09:38:27;3.00;;;1.30;;
6979;SDS011;3530;52.832;10.680;2022-10-16T09:44:04;1.17;;;1.17;;
6979;SDS011;3530;52.832;10.680;2022-10-16T09:47:04;1.65;;;1.65;;
6979;SDS011;3530;52.832;10.680;2022-10-16T09:50:19;1.52;;;1.52;;
6979;SDS011;3530;52.832;10.680;2022-10-16T09:53:11;1.40;;;1.40;;
6979;SDS011;3530;52.832;10.680;2022-10-16T09:55:57;1.63;;;1.52;;
6979;SDS011;3530;52.832;10.680;2022-10-16T09:58:43;1.30;;;1.30;;
6979;SDS011;3530;52.832;10.680;2022-10-16T10:01:37;1.48;;;1.30;;
6979;SDS011;3530;52.832;10.680;2022-10-16T10:04:36;1.40;;;1.30;;
6979;SDS011;3530;52.832;10.680;2022-10-16T10:07:42;1.30;;;1.30;;
6979;SDS011;3530;52.832;10.680;2022-10-16T10:10:29;1.20;;;1.20;;
6979;SDS011;3530;52.832;10.680;2022-10-16T10:13:19;1.20;;;1.20;;
6979;SDS011;3530;52.832;10.680;2022-10-16T10:16:06;1.02;;;1.02;;
6979;SDS011;3530;52.832;10.680;2022-10-16T10:18:58;1.10;;;1.10;;
6979;SDS011;3530;52.832;10.680;2022-10-16T10:21:45;2.13;;;1.40;;
6979;SDS011;3530;52.832;10.680;2022-10-16T10:24:30;1.35;;;1.30;;
6979;SDS011;3530;52.832;10.680;2022-10-16T10:27:16;1.38;;;1.30;;
6979;SDS011;3530;52.832;10.680;2022-10-16T10:36:01;2.40;;;1.30;;
6979;SDS011;3530;52.832;10.680;2022-10-16T10:45:17;1.05;;;1.05;;
6979;SDS011;3530;52.832;10.680;2022-10-16T10:51:22;1.17;;;1.02;;
6979;SDS011;3530;52.832;10.680;2022-10-16T11:07:38;1.30;;;1.08;;
6979;SDS011;3530;52.832;10.680;2022-10-16T11:10:33;1.15;;;1.15;;
6979;SDS011;3530;52.832;10.680;2022-10-16T11:13:29;0.93;;;0.93;;
6979;SDS011;3530;52.832;10.680;2022-10-16T11:16:20;1.20;;;1.20;;
6979;SDS011;3530;52.832;10.680;2022-10-16T11:19:16;1.27;;;1.27;;
6979;SDS011;3530;52.832;10.680;2022-10-16T11:22:15;1.10;;;1.10;;
6979;SDS011;3530;52.832;10.680;2022-10-16T11:31:08;1.00;;;1.00;;
6979;SDS011;3530;52.832;10.680;2022-10-16T11:34:20;1.30;;;1.08;;
6979;SDS011;3530;52.832;10.680;2022-10-16T11:39:55;1.35;;;0.93;;
6979;SDS011;3530;52.832;10.680;2022-10-16T11:42:46;1.13;;;1.13;;
6979;SDS011;3530;52.832;10.680;2022-10-16T11:51:40;1.05;;;1.05;;
6979;SDS011;3530;52.832;10.680;2022-10-16T11:54:29;3.28;;;1.45;;
6979;SDS011;3530;52.832;10.680;2022-10-16T11:57:29;1.30;;;1.20;;
6979;SDS011;3530;52.832;10.680;2022-10-16T12:00:24;1.00;;;1.00;;
6979;SDS011;3530;52.832;10.680;2022-10-16T12:03:21;1.05;;;1.05;;
6979;SDS011;3530;52.832;10.680;2022-10-16T12:06:35;2.58;;;1.08;;
6979;SDS011;3530;52.832;10.680;2022-10-16T12:09:26;3.63;;;1.08;;
6979;SDS011;3530;52.832;10.680;2022-10-16T12:15:27;0.93;;;0.93;;
6979;SDS011;3530;52.832;10.680;2022-10-16T12:18:23;1.10;;;1.10;;
6979;SDS011;3530;52.832;10.680;2022-10-16T12:21:10;4.30;;;1.10;;
6979;SDS011;3530;52.832;10.680;2022-10-16T12:24:01;1.70;;;1.10;;
6979;SDS011;3530;52.832;10.680;2022-10-16T12:26:48;1.80;;;1.40;;
6979;SDS011;3530;52.832;10.680;2022-10-16T12:32:34;0.90;;;0.90;;
6979;SDS011;3530;52.832;10.680;2022-10-16T12:35:22;1.45;;;1.20;;
6979;SDS011;3530;52.832;10.680;2022-10-16T12:38:18;1.00;;;1.00;;
6979;SDS011;3530;52.832;10.680;2022-10-16T12:41:05;1.13;;;0.95;;
6979;SDS011;3530;52.832;10.680;2022-10-16T12:43:53;1.17;;;1.00;;
6979;SDS011;3530;52.832;10.680;2022-10-16T12:46:39;1.10;;;1.10;;
6979;SDS011;3530;52.832;10.680;2022-10-16T12:52:27;2.20;;;1.40;;
6979;SDS011;3530;52.832;10.680;2022-10-16T12:55:20;2.30;;;1.23;;
6979;SDS011;3530;52.832;10.680;2022-10-16T12:58:23;1.63;;;0.90;;
6979;SDS011;3530;52.832;10.680;2022-10-16T13:10:21;2.13;;;1.23;;
6979;SDS011;3530;52.832;10.680;2022-10-16T13:16:08;1.67;;;1.13;;
6979;SDS011;3530;52.832;10.680;2022-10-16T13:28:14;2.72;;;1.13;;
6979;SDS011;3530;52.832;10.680;2022-10-16T13:31:01;0.93;;;0.93;;
6979;SDS011;3530;52.832;10.680;2022-10-16T13:33:48;1.17;;;1.00;;
6979;SDS011;3530;52.832;10.680;2022-10-16T13:36:48;0.90;;;0.90;;
6979;SDS011;3530;52.832;10.680;2022-10-16T13:39:37;1.35;;;1.35;;
6979;SDS011;3530;52.832;10.680;2022-10-16T13:42:24;2.88;;;1.33;;
6979;SDS011;3530;52.832;10.680;2022-10-16T13:45:22;1.48;;;1.20;;
6979;SDS011;3530;52.832;10.680;2022-10-16T13:48:10;1.52;;;1.25;;
6979;SDS011;3530;52.832;10.680;2022-10-16T13:51:05;1.10;;;1.00;;
6979;SDS011;3530;52.832;10.680;2022-10-16T13:53:56;1.00;;;1.00;;
6979;SDS011;3530;52.832;10.680;2022-10-16T13:56:42;1.00;;;1.00;;
6979;SDS011;3530;52.832;10.680;2022-10-16T13:59:34;1.42;;;1.15;;
6979;SDS011;3530;52.832;10.680;2022-10-16T14:05:22;1.83;;;1.20;;
6979;SDS011;3530;52.832;10.680;2022-10-16T14:08:09;1.10;;;1.10;;
6979;SDS011;3530;52.832;10.680;2022-10-16T14:10:57;1.65;;;1.00;;
6979;SDS011;3530;52.832;10.680;2022-10-16T14:13:44;1.42;;;1.10;;
6979;SDS011;3530;52.832;10.680;2022-10-16T14:16:31;1.20;;;1.10;;
6979;SDS011;3530;52.832;10.680;2022-10-16T14:19:20;2.42;;;1.02;;
6979;SDS011;3530;52.832;10.680;2022-10-16T14:22:21;1.02;;;1.00;;
6979;SDS011;3530;52.832;10.680;2022-10-16T14:25:20;1.05;;;0.98;;
6979;SDS011;3530;52.832;10.680;2022-10-16T14:28:19;1.25;;;1.20;;
6979;SDS011;3530;52.832;10.680;2022-10-16T14:37:25;1.08;;;1.08;;
6979;SDS011;3530;52.832;10.680;2022-10-16T14:40:14;0.82;;;0.82;;
6979;SDS011;3530;52.832;10.680;2022-10-16T14:43:00;1.23;;;1.13;;
6979;SDS011;3530;52.832;10.680;2022-10-16T14:45:50;1.00;;;1.00;;
6979;SDS011;3530;52.832;10.680;2022-10-16T14:48:43;1.38;;;1.27;;
6979;SDS011;3530;52.832;10.680;2022-10-16T14:51:30;1.00;;;1.00;;
6979;SDS011;3530;52.832;10.680;2022-10-16T14:54:17;1.70;;;1.10;;
6979;SDS011;3530;52.832;10.680;2022-10-16T14:57:03;0.93;;;0.93;;
6979;SDS011;3530;52.832;10.680;2022-10-16T14:59:49;0.77;;;0.77;;
6979;SDS011;3530;52.832;10.680;2022-10-16T15:02:38;3.83;;;1.48;;
6979;SDS011;3530;52.832;10.680;2022-10-16T15:05:25;1.00;;;1.00;;
6979;SDS011;3530;52.832;10.680;2022-10-16T15:08:11;2.97;;;1.20;;
6979;SDS011;3530;52.832;10.680;2022-10-16T15:10:58;1.17;;;1.10;;
6979;SDS011;3530;52.832;10.680;2022-10-16T15:13:43;1.00;;;1.00;;
6979;SDS011;3530;52.832;10.680;2022-10-16T15:16:29;1.25;;;0.98;;
6979;SDS011;3530;52.832;10.680;2022-10-16T15:19:16;1.33;;;1.20;;
6979;SDS011;3530;52.832;10.680;2022-10-16T15:22:01;1.10;;;1.10;;
6979;SDS011;3530;52.832;10.680;2022-10-16T15:24:47;1.95;;;1.20;;
6979;SDS011;3530;52.832;10.680;2022-10-16T15:27:33;2.22;;;1.45;;
6979;SDS011;3530;52.832;10.680;2022-10-16T15:30:25;1.70;;;1.20;;
6979;SDS011;3530;52.832;10.680;2022-10-16T15:33:12;1.40;;;1.30;;
6979;SDS011;3530;52.832;10.680;2022-10-16T15:36:02;1.13;;;1.13;;
6979;SDS011;3530;52.832;10.680;2022-10-16T15:38:48;1.15;;;1.10;;
6979;SDS011;3530;52.832;10.680;2022-10-16T15:41:34;1.30;;;1.10;;
6979;SDS011;3530;52.832;10.680;2022-10-16T15:44:20;1.20;;;1.20;;
6979;SDS011;3530;52.832;10.680;2022-10-16T15:47:08;1.08;;;1.08;;
6979;SDS011;3530;52.832;10.680;2022-10-16T15:49:54;1.20;;;1.20;;
6979;SDS011;3530;52.832;10.680;2022-10-16T15:52:40;1.17;;;1.00;;
6979;SDS011;3530;52.832;10.680;2022-10-16T15:55:26;1.42;;;1.40;;
6979;SDS011;3530;52.832;10.680;2022-10-16T15:58:11;1.70;;;1.30;;
6979;SDS011;3530;52.832;10.680;2022-10-16T16:00:58;2.25;;;1.40;;
6979;SDS011;3530;52.832;10.680;2022-10-16T16:03:51;1.83;;;1.33;;
6979;SDS011;3530;52.832;10.680;2022-10-16T16:06:38;3.03;;;1.40;;
6979;SDS011;3530;52.832;10.680;2022-10-16T16:09:25;1.50;;;1.40;;
6979;SDS011;3530;52.832;10.680;2022-10-16T16:12:10;1.20;;;1.20;;
6979;SDS011;3530;52.832;10.680;2022-10-16T16:14:56;1.25;;;1.20;;
6979;SDS011;3530;52.832;10.680;2022-10-16T16:17:42;2.75;;;1.38;;
6979;SDS011;3530;52.832;10.680;2022-10-16T16:20:29;1.85;;;1.60;;
6979;SDS011;3530;52.832;10.680;2022-10-16T16:23:15;1.58;;;1.48;;
6979;SDS011;3530;52.832;10.680;2022-10-16T16:26:05;1.42;;;1.20;;
6979;SDS011;3530;52.832;10.680;2022-10-16T16:29:02;1.77;;;1.58;;
6979;SDS011;3530;52.832;10.680;2022-10-16T16:31:48;3.53;;;1.27;;
6979;SDS011;3530;52.832;10.680;2022-10-16T16:34:34;2.60;;;1.65;;
6979;SDS011;3530;52.832;10.680;2022-10-16T16:37:20;4.30;;;1.90;;
6979;SDS011;3530;52.832;10.680;2022-10-16T16:40:06;1.23;;;1.23;;
6979;SDS011;3530;52.832;10.680;2022-10-16T16:42:51;2.45;;;1.50;;
6979;SDS011;3530;52.832;10.680;2022-10-16T16:45:37;1.85;;;1.75;;
6979;SDS011;3530;52.832;10.680;2022-10-16T16:48:23;1.70;;;1.63;;
6979;SDS011;3530;52.832;10.680;2022-10-16T16:51:10;4.68;;;1.70;;
6979;SDS011;3530;52.832;10.680;2022-10-16T16:54:01;1.70;;;1.60;;
6979;SDS011;3530;52.832;10.680;2022-10-16T16:56:47;1.45;;;1.35;;
6979;SDS011;3530;52.832;10.680;2022-10-16T16:59:32;1.70;;;1.40;;
6979;SDS011;3530;52.832;10.680;2022-10-16T17:02:18;4.72;;;1.38;;
6979;SDS011;3530;52.832;10.680;2022-10-16T17:05:04;2.35;;;1.52;;
6979;SDS011;3530;52.832;10.680;2022-10-16T17:07:50;2.65;;;1.77;;
6979;SDS011;3530;52.832;10.680;2022-10-16T17:10:41;2.00;;;1.63;;
6979;SDS011;3530;52.832;10.680;2022-10-16T17:13:29;22.35;;;8.93;;
6979;SDS011;3530;52.832;10.680;2022-10-16T17:16:16;13.73;;;6.47;;
6979;SDS011;3530;52.832;10.680;2022-10-16T17:19:03;4.03;;;2.33;;
6979;SDS011;3530;52.832;10.680;2022-10-16T17:21:50;3.72;;;1.60;;
6979;SDS011;3530;52.832;10.680;2022-10-16T17:24:36;1.83;;;1.73;;
6979;SDS011;3530;52.832;10.680;2022-10-16T17:27:22;2.72;;;1.83;;
6979;SDS011;3530;52.832;10.680;2022-10-16T17:30:08;2.70;;;1.60;;
6979;SDS011;3530;52.832;10.680;2022-10-16T17:32:54;1.67;;;1.48;;
6979;SDS011;3530;52.832;10.680;2022-10-16T17:35:40;3.63;;;1.60;;
6979;SDS011;3530;52.832;10.680;2022-10-16T17:38:28;1.58;;;1.50;;
6979;SDS011;3530;52.832;10.680;2022-10-16T17:41:18;2.33;;;1.50;;
6979;SDS011;3530;52.832;10.680;2022-10-16T17:44:07;1.55;;;1.48;;
6979;SDS011;3530;52.832;10.680;2022-10-16T17:46:53;6.07;;;1.85;;
6979;SDS011;3530;52.832;10.680;2022-10-16T17:49:39;2.03;;;1.85;;
6979;SDS011;3530;52.832;10.680;2022-10-16T17:52:25;3.90;;;1.45;;
6979;SDS011;3530;52.832;10.680;2022-10-16T17:55:10;2.47;;;1.95;;
6979;SDS011;3530;52.832;10.680;2022-10-16T17:57:56;2.97;;;2.30;;
6979;SDS011;3530;52.832;10.680;2022-10-16T18:00:42;5.53;;;2.47;;
6979;SDS011;3530;52.832;10.680;2022-10-16T18:03:28;3.75;;;3.05;;
6979;SDS011;3530;52.832;10.680;2022-10-16T18:06:14;6.65;;;4.25;;
6979;SDS011;3530;52.832;10.680;2022-10-16T18:08:59;8.02;;;3.97;;
6979;SDS011;3530;52.832;10.680;2022-10-16T18:11:46;7.25;;;4.93;;
6979;SDS011;3530;52.832;10.680;2022-10-16T18:14:33;8.63;;;7.45;;
6979;SDS011;3530;52.832;10.680;2022-10-16T18:17:19;7.68;;;4.47;;
6979;SDS011;3530;52.832;10.680;2022-10-16T18:20:05;8.30;;;3.67;;
6979;SDS011;3530;52.832;10.680;2022-10-16T18:22:51;4.22;;;3.83;;
6979;SDS011;3530;52.832;10.680;2022-10-16T18:25:37;6.97;;;4.32;;
6979;SDS011;3530;52.832;10.680;2022-10-16T18:28:23;7.95;;;6.60;;
6979;SDS011;3530;52.832;10.680;2022-10-16T18:31:12;7.85;;;6.10;;
6979;SDS011;3530;52.832;10.680;2022-10-16T18:33:59;7.40;;;6.00;;
6979;SDS011;3530;52.832;10.680;2022-10-16T18:36:44;6.53;;;5.00;;
6979;SDS011;3530;52.832;10.680;2022-10-16T18:39:30;6.45;;;5.72;;
6979;SDS011;3530;52.832;10.680;2022-10-16T18:42:16;9.02;;;5.85;;
6979;SDS011;3530;52.832;10.680;2022-10-16T18:45:02;9.98;;;6.32;;
6979;SDS011;3530;52.832;10.680;2022-10-16T18:47:48;7.95;;;6.43;;
6979;SDS011;3530;52.832;10.680;2022-10-16T18:50:34;13.30;;;9.35;;
6979;SDS011;3530;52.832;10.680;2022-10-16T18:53:19;11.88;;;9.43;;
6979;SDS011;3530;52.832;10.680;2022-10-16T18:56:05;10.85;;;9.18;;